createdAt,value
2018-09-19T00:00:24.034Z,18.34
2018-09-19T00:01:24.097Z,18.41
2018-09-19T00:02:24.165Z,18.33
2018-09-19T00:03:24.409Z,18.31
2018-09-19T00:04:24.304Z,18.18
2018-09-19T00:05:24.357Z,18.25
2018-09-19T00:06:24.426Z,18.20
2018-09-19T00:07:24.496Z,18.20
2018-09-19T00:08:24.561Z,18.19
2018-09-19T00:09:24.628Z,18.18
2018-09-19T00:10:24.689Z,18.16
2018-09-19T00:11:24.749Z,18.07
2018-09-19T00:12:24.813Z,18.11
2018-09-19T00:13:24.887Z,18.11
2018-09-19T00:14:24.951Z,18.04
2018-09-19T00:15:25.009Z,18.01
2018-09-19T00:16:25.074Z,17.98
2018-09-19T00:17:25.138Z,17.98
2018-09-19T00:18:25.295Z,18.04
2018-09-19T00:19:25.273Z,17.97
2018-09-19T00:20:25.336Z,17.89
2018-09-19T00:21:25.402Z,17.90
2018-09-19T00:22:25.465Z,17.95
2018-09-19T00:23:25.534Z,17.94
2018-09-19T00:24:25.598Z,18.01
2018-09-19T00:25:25.664Z,17.83
2018-09-19T00:26:25.722Z,17.83
2018-09-19T00:27:25.790Z,17.83
2018-09-19T00:28:25.862Z,17.82
2018-09-19T00:29:25.922Z,17.72
2018-09-19T00:30:25.986Z,17.80
2018-09-19T00:31:26.048Z,17.72
2018-09-19T00:32:26.112Z,17.64
2018-09-19T00:33:26.270Z,17.60
2018-09-19T00:34:26.242Z,17.67
2018-09-19T00:35:26.309Z,17.65
2018-09-19T00:36:26.370Z,17.51
2018-09-19T00:37:26.434Z,17.56
2018-09-19T00:38:26.506Z,17.56
2018-09-19T00:39:26.577Z,17.51
2018-09-19T00:40:26.631Z,17.49
2018-09-19T00:41:26.713Z,17.52
2018-09-19T00:42:26.758Z,17.48
2018-09-19T00:43:26.837Z,17.46
2018-09-19T00:44:26.901Z,17.46
2018-09-19T00:45:26.965Z,17.49
2018-09-19T00:46:27.019Z,17.48
2018-09-19T00:47:27.084Z,17.49
2018-09-19T00:48:27.238Z,17.38
2018-09-19T00:49:27.227Z,17.46
2018-09-19T00:50:27.279Z,17.41
2018-09-19T00:51:27.343Z,17.36
2018-09-19T00:52:27.408Z,17.38
2018-09-19T00:53:27.480Z,17.42
2018-09-19T00:54:27.543Z,17.36
2018-09-19T00:55:27.608Z,17.23
2018-09-19T00:56:27.668Z,17.31
2018-09-19T00:57:27.731Z,17.26
2018-09-19T00:58:27.803Z,17.30
2018-09-19T00:59:27.874Z,17.29
2018-09-19T01:00:27.931Z,17.30
2018-09-19T01:01:27.991Z,17.26
2018-09-19T01:02:28.058Z,17.20
2018-09-19T01:03:28.388Z,17.14
2018-09-19T01:04:28.183Z,17.19
2018-09-19T01:05:28.247Z,17.19
2018-09-19T01:06:28.320Z,17.12
2018-09-19T01:07:28.380Z,17.22
2018-09-19T01:08:28.447Z,17.15
2018-09-19T01:09:28.515Z,17.14
2018-09-19T01:10:28.575Z,17.16
2018-09-19T01:11:28.641Z,17.12
2018-09-19T01:12:28.700Z,17.11
2018-09-19T01:13:28.772Z,17.11
2018-09-19T01:14:28.842Z,17.09
2018-09-19T01:15:28.903Z,17.14
2018-09-19T01:16:28.960Z,17.08
2018-09-19T01:17:29.025Z,17.15
2018-09-19T01:18:29.356Z,17.06
2018-09-19T01:19:29.156Z,17.02
2018-09-19T01:20:29.222Z,17.05
2018-09-19T01:21:29.294Z,17.05
2018-09-19T01:22:29.348Z,17.08
2018-09-19T01:23:29.421Z,17.11
2018-09-19T01:24:29.485Z,17.06
2018-09-19T01:25:29.541Z,17.05
2018-09-19T01:26:29.609Z,17.05
2018-09-19T01:27:29.677Z,17.08
2018-09-19T01:28:29.740Z,17.02
2018-09-19T01:29:29.808Z,17.08
2018-09-19T01:30:29.864Z,17.01
2018-09-19T01:31:29.928Z,17.09
2018-09-19T01:32:29.996Z,16.97
2018-09-19T01:33:30.071Z,16.93
2018-09-19T01:34:30.132Z,17.02
2018-09-19T01:35:30.191Z,17.01
2018-09-19T01:36:30.252Z,17.01
2018-09-19T01:37:30.317Z,16.93
2018-09-19T01:38:30.388Z,16.93
2018-09-19T01:39:30.454Z,16.94
2018-09-19T01:40:30.508Z,16.89
2018-09-19T01:41:30.606Z,16.93
2018-09-19T01:42:30.641Z,16.91
2018-09-19T01:43:30.713Z,16.87
2018-09-19T01:44:30.773Z,16.86
2018-09-19T01:45:30.835Z,16.90
2018-09-19T01:46:30.902Z,16.91
2018-09-19T01:47:30.961Z,16.93
2018-09-19T01:48:31.033Z,16.81
2018-09-19T01:49:31.097Z,16.83
2018-09-19T01:50:31.157Z,16.78
2018-09-19T01:51:31.223Z,16.72
2018-09-19T01:52:31.313Z,16.75
2018-09-19T01:53:31.358Z,16.72
2018-09-19T01:54:31.424Z,16.71
2018-09-19T01:55:31.484Z,16.71
2018-09-19T01:56:31.541Z,16.71
2018-09-19T01:57:31.605Z,16.75
2018-09-19T01:58:31.677Z,16.68
2018-09-19T01:59:31.741Z,16.69
2018-09-19T02:00:31.801Z,16.72
2018-09-19T02:01:31.868Z,16.74
2018-09-19T02:02:31.929Z,16.74
2018-09-19T02:03:32.001Z,16.71
2018-09-19T02:04:32.073Z,16.71
2018-09-19T02:05:32.121Z,16.68
2018-09-19T02:06:32.186Z,16.66
2018-09-19T02:07:32.253Z,16.69
2018-09-19T02:08:32.313Z,16.68
2018-09-19T02:09:32.473Z,16.64
2018-09-19T02:10:32.446Z,16.61
2018-09-19T02:11:32.513Z,16.72
2018-09-19T02:12:32.581Z,16.65
2018-09-19T02:13:32.643Z,16.61
2018-09-19T02:14:32.718Z,16.54
2018-09-19T02:15:32.773Z,16.50
2018-09-19T02:16:32.829Z,16.53
2018-09-19T02:17:32.894Z,16.51
2018-09-19T02:18:32.959Z,16.58
2018-09-19T02:19:33.030Z,16.51
2018-09-19T02:20:33.094Z,16.53
2018-09-19T02:21:33.153Z,16.47
2018-09-19T02:22:33.221Z,16.39
2018-09-19T02:23:33.285Z,16.36
2018-09-19T02:24:33.350Z,16.47
2018-09-19T02:25:33.418Z,16.41
2018-09-19T02:26:33.479Z,16.41
2018-09-19T02:27:33.538Z,16.38
2018-09-19T02:28:33.747Z,16.35
2018-09-19T02:29:33.678Z,16.29
2018-09-19T02:30:33.743Z,16.29
2018-09-19T02:31:33.797Z,16.31
2018-09-19T02:32:33.858Z,16.23
2018-09-19T02:33:33.921Z,16.28
2018-09-19T02:34:33.991Z,16.31
2018-09-19T02:35:34.079Z,16.29
2018-09-19T02:36:34.123Z,16.29
2018-09-19T02:37:34.188Z,16.28
2018-09-19T02:38:34.250Z,16.29
2018-09-19T02:39:34.311Z,16.29
2018-09-19T02:40:34.383Z,16.24
2018-09-19T02:41:34.446Z,16.31
2018-09-19T02:42:34.504Z,16.35
2018-09-19T02:43:34.567Z,16.35
2018-09-19T02:44:34.645Z,16.39
2018-09-19T02:45:34.707Z,16.38
2018-09-19T02:46:34.767Z,16.38
2018-09-19T02:47:34.877Z,16.35
2018-09-19T02:48:34.887Z,16.35
2018-09-19T02:49:34.951Z,16.32
2018-09-19T02:50:35.023Z,16.32
2018-09-19T02:51:35.092Z,16.36
2018-09-19T02:52:35.147Z,16.29
2018-09-19T02:53:35.211Z,16.23
2018-09-19T02:54:35.276Z,16.36
2018-09-19T02:55:35.436Z,16.35
2018-09-19T02:56:35.403Z,16.23
2018-09-19T02:57:35.470Z,16.23
2018-09-19T02:58:35.534Z,16.36
2018-09-19T02:59:35.595Z,16.33
2018-09-19T03:00:35.668Z,16.23
2018-09-19T03:01:35.733Z,16.29
2018-09-19T03:02:35.802Z,16.24
2018-09-19T03:03:35.851Z,16.26
2018-09-19T03:04:35.915Z,16.32
2018-09-19T03:05:36.011Z,16.21
2018-09-19T03:06:36.054Z,16.24
2018-09-19T03:07:36.108Z,16.24
2018-09-19T03:08:36.172Z,16.20
2018-09-19T03:09:36.240Z,16.20
2018-09-19T03:10:36.323Z,16.26
2018-09-19T03:11:36.460Z,16.17
2018-09-19T03:12:36.439Z,16.21
2018-09-19T03:13:36.497Z,16.23
2018-09-19T03:14:36.560Z,16.26
2018-09-19T03:15:36.627Z,16.23
2018-09-19T03:16:36.692Z,16.28
2018-09-19T03:17:36.937Z,16.26
2018-09-19T03:18:36.816Z,16.26
2018-09-19T03:19:36.882Z,16.24
2018-09-19T03:20:36.946Z,16.39
2018-09-19T03:21:37.012Z,16.28
2018-09-19T03:22:37.090Z,16.28
2018-09-19T03:23:37.143Z,16.24
2018-09-19T03:24:37.218Z,16.35
2018-09-19T03:25:37.271Z,16.24
2018-09-19T03:26:37.336Z,16.24
2018-09-19T03:27:37.401Z,16.29
2018-09-19T03:28:37.461Z,16.33
2018-09-19T03:29:37.526Z,16.32
2018-09-19T03:30:37.597Z,16.28
2018-09-19T03:31:37.662Z,16.31
2018-09-19T03:32:37.733Z,16.26
2018-09-19T03:33:37.778Z,16.32
2018-09-19T03:34:37.842Z,16.31
2018-09-19T03:35:37.907Z,16.33
2018-09-19T03:36:37.977Z,16.32
2018-09-19T03:37:38.041Z,16.35
2018-09-19T03:38:38.100Z,16.43
2018-09-19T03:39:38.175Z,16.31
2018-09-19T03:40:38.225Z,16.35
2018-09-19T03:41:38.307Z,16.32
2018-09-19T03:42:38.358Z,16.38
2018-09-19T03:43:38.422Z,16.38
2018-09-19T03:44:38.482Z,16.41
2018-09-19T03:45:38.550Z,16.39
2018-09-19T03:46:38.629Z,16.43
2018-09-19T03:47:38.682Z,16.58
2018-09-19T03:48:38.743Z,16.56
2018-09-19T03:49:38.805Z,16.54
2018-09-19T03:50:38.870Z,16.64
2018-09-19T03:51:38.939Z,16.57
2018-09-19T03:52:39.009Z,16.53
2018-09-19T03:53:39.063Z,16.41
2018-09-19T03:54:39.126Z,16.54
2018-09-19T03:55:39.220Z,16.51
2018-09-19T03:56:39.346Z,16.51
2018-09-19T03:57:39.332Z,16.54
2018-09-19T03:58:39.384Z,16.39
2018-09-19T03:59:39.448Z,16.36
2018-09-19T04:00:39.527Z,16.38
2018-09-19T04:01:39.584Z,16.39
2018-09-19T04:02:39.648Z,16.38
2018-09-19T04:03:39.702Z,16.33
2018-09-19T04:04:39.766Z,16.38
2018-09-19T04:05:39.831Z,16.33
2018-09-19T04:06:39.902Z,16.41
2018-09-19T04:07:39.966Z,16.31
2018-09-19T04:08:40.023Z,16.29
2018-09-19T04:09:40.086Z,16.28
2018-09-19T04:10:40.165Z,16.29
2018-09-19T04:11:40.216Z,16.29
2018-09-19T04:12:40.546Z,16.26
2018-09-19T04:13:40.343Z,16.21
2018-09-19T04:14:40.413Z,16.23
2018-09-19T04:15:40.474Z,16.21
2018-09-19T04:16:40.534Z,16.24
2018-09-19T04:17:40.652Z,16.20
2018-09-19T04:18:40.670Z,16.20
2018-09-19T04:19:40.727Z,16.16
2018-09-19T04:20:40.797Z,16.23
2018-09-19T04:21:40.855Z,16.28
2018-09-19T04:22:40.927Z,16.28
2018-09-19T04:23:41.068Z,16.32
2018-09-19T04:24:41.047Z,16.36
2018-09-19T04:25:41.111Z,16.38
2018-09-19T04:26:41.174Z,16.33
2018-09-19T04:27:41.331Z,16.42
2018-09-19T04:28:41.302Z,16.32
2018-09-19T04:29:41.366Z,16.36
2018-09-19T04:30:41.437Z,16.35
2018-09-19T04:31:41.499Z,16.33
2018-09-19T04:32:41.573Z,16.31
2018-09-19T04:33:41.631Z,16.32
2018-09-19T04:34:41.687Z,16.28
2018-09-19T04:35:41.759Z,16.29
2018-09-19T04:36:41.816Z,16.29
2018-09-19T04:37:41.887Z,16.31
2018-09-19T04:38:41.955Z,16.24
2018-09-19T04:39:42.020Z,16.28
2018-09-19T04:40:42.077Z,16.28
2018-09-19T04:41:42.144Z,16.31
2018-09-19T04:42:42.474Z,16.32
2018-09-19T04:43:42.275Z,16.29
2018-09-19T04:44:42.328Z,16.31
2018-09-19T04:45:42.432Z,16.36
2018-09-19T04:46:42.456Z,16.35
2018-09-19T04:47:42.530Z,16.42
2018-09-19T04:48:42.592Z,16.39
2018-09-19T04:49:42.651Z,16.41
2018-09-19T04:50:42.712Z,16.43
2018-09-19T04:51:42.895Z,16.43
2018-09-19T04:52:42.856Z,16.51
2018-09-19T04:53:42.916Z,16.50
2018-09-19T04:54:42.973Z,16.49
2018-09-19T04:55:43.036Z,16.38
2018-09-19T04:56:43.098Z,16.51
2018-09-19T04:57:43.425Z,16.50
2018-09-19T04:58:43.224Z,16.56
2018-09-19T04:59:43.288Z,16.50
2018-09-19T05:00:43.353Z,16.49
2018-09-19T05:01:43.416Z,16.42
2018-09-19T05:02:43.492Z,16.50
2018-09-19T05:03:43.555Z,16.54
2018-09-19T05:04:43.608Z,16.56
2018-09-19T05:05:43.687Z,16.53
2018-09-19T05:06:43.740Z,16.53
2018-09-19T05:07:43.814Z,16.53
2018-09-19T05:08:43.876Z,16.53
2018-09-19T05:09:43.931Z,16.54
2018-09-19T05:10:43.993Z,16.53
2018-09-19T05:11:44.063Z,16.57
2018-09-19T05:12:44.175Z,16.53
2018-09-19T05:13:44.190Z,16.54
2018-09-19T05:14:44.253Z,16.51
2018-09-19T05:15:44.312Z,16.49
2018-09-19T05:16:44.377Z,16.61
2018-09-19T05:17:44.451Z,16.61
2018-09-19T05:18:44.515Z,16.61
2018-09-19T05:19:44.569Z,16.57
2018-09-19T05:20:44.633Z,16.64
2018-09-19T05:21:44.697Z,16.54
2018-09-19T05:22:44.769Z,16.66
2018-09-19T05:23:44.833Z,16.71
2018-09-19T05:24:44.889Z,16.71
2018-09-19T05:25:44.953Z,16.65
2018-09-19T05:26:45.047Z,16.69
2018-09-19T05:27:45.202Z,16.75
2018-09-19T05:28:45.145Z,16.72
2018-09-19T05:29:45.209Z,16.76
2018-09-19T05:30:45.274Z,16.75
2018-09-19T05:31:45.410Z,16.72
2018-09-19T05:32:45.405Z,16.74
2018-09-19T05:33:45.506Z,16.75
2018-09-19T05:34:45.532Z,16.72
2018-09-19T05:35:45.593Z,16.75
2018-09-19T05:36:45.661Z,16.74
2018-09-19T05:37:45.749Z,16.75
2018-09-19T05:38:45.791Z,16.71
2018-09-19T05:39:45.851Z,16.81
2018-09-19T05:40:45.917Z,16.81
2018-09-19T05:41:45.978Z,16.81
2018-09-19T05:42:46.046Z,16.86
2018-09-19T05:43:46.110Z,16.90
2018-09-19T05:44:46.170Z,16.86
2018-09-19T05:45:46.234Z,16.96
2018-09-19T05:46:46.298Z,16.96
2018-09-19T05:47:46.538Z,16.96
2018-09-19T05:48:46.427Z,17.01
2018-09-19T05:49:46.490Z,17.01
2018-09-19T05:50:46.555Z,17.05
2018-09-19T05:51:46.618Z,17.11
2018-09-19T05:52:46.686Z,17.06
2018-09-19T05:53:46.757Z,17.11
2018-09-19T05:54:46.815Z,17.12
2018-09-19T05:55:46.877Z,17.12
2018-09-19T05:56:46.939Z,17.14
2018-09-19T05:57:47.013Z,17.19
2018-09-19T05:58:47.070Z,17.20
2018-09-19T05:59:47.130Z,17.22
2018-09-19T06:00:47.196Z,17.23
2018-09-19T06:01:47.259Z,17.30
2018-09-19T06:02:47.330Z,17.29
2018-09-19T06:03:47.398Z,17.27
2018-09-19T06:04:47.465Z,17.38
2018-09-19T06:05:47.514Z,17.36
2018-09-19T06:06:47.578Z,17.39
2018-09-19T06:07:47.651Z,17.44
2018-09-19T06:08:47.715Z,17.48
2018-09-19T06:09:47.773Z,17.48
2018-09-19T06:10:47.843Z,17.49
2018-09-19T06:11:47.899Z,17.63
2018-09-19T06:12:47.979Z,17.65
2018-09-19T06:13:48.039Z,17.67
2018-09-19T06:14:48.092Z,17.63
2018-09-19T06:15:48.167Z,17.67
2018-09-19T06:16:48.222Z,17.71
2018-09-19T06:17:48.287Z,17.85
2018-09-19T06:18:48.368Z,17.79
2018-09-19T06:19:48.415Z,17.83
2018-09-19T06:20:48.480Z,17.85
2018-09-19T06:21:48.543Z,17.95
2018-09-19T06:22:48.608Z,18.00
2018-09-19T06:23:48.679Z,18.00
2018-09-19T06:24:48.744Z,17.97
2018-09-19T06:25:48.800Z,18.01
2018-09-19T06:26:48.866Z,18.11
2018-09-19T06:27:48.928Z,18.11
2018-09-19T06:28:49.001Z,18.16
2018-09-19T06:29:49.066Z,18.20
2018-09-19T06:30:49.124Z,18.25
2018-09-19T06:31:49.192Z,18.18
2018-09-19T06:32:49.305Z,18.31
2018-09-19T06:33:49.678Z,18.34
2018-09-19T06:34:49.380Z,18.34
2018-09-19T06:35:49.444Z,18.35
2018-09-19T06:36:49.529Z,18.50
2018-09-19T06:37:49.572Z,18.52
2018-09-19T06:38:49.637Z,18.50
2018-09-19T06:39:49.749Z,18.58
2018-09-19T06:40:49.884Z,18.77
2018-09-19T06:41:49.841Z,18.88
2018-09-19T06:42:49.916Z,18.95
2018-09-19T06:43:49.960Z,18.96
2018-09-19T06:44:50.034Z,19.16
2018-09-19T06:45:50.097Z,19.26
2018-09-19T06:46:50.194Z,19.36
2018-09-19T06:47:50.224Z,19.36
2018-09-19T06:48:50.286Z,19.52
2018-09-19T06:49:50.376Z,19.55
2018-09-19T06:50:50.413Z,19.67
2018-09-19T06:51:50.510Z,19.62
2018-09-19T06:52:50.543Z,19.69
2018-09-19T06:53:50.611Z,19.67
2018-09-19T06:54:50.681Z,19.71
2018-09-19T06:55:50.745Z,19.67
2018-09-19T06:56:50.802Z,19.77
2018-09-19T06:57:50.869Z,19.73
2018-09-19T06:58:50.933Z,19.71
2018-09-19T06:59:51.045Z,19.73
2018-09-19T07:00:51.078Z,19.81
2018-09-19T07:01:51.129Z,19.82
2018-09-19T07:02:51.193Z,19.79
2018-09-19T07:03:51.257Z,19.84
2018-09-19T07:04:51.369Z,19.89
2018-09-19T07:05:51.450Z,19.92
2018-09-19T07:06:51.456Z,19.99
2018-09-19T07:07:51.524Z,20.02
2018-09-19T07:08:51.581Z,20.02
2018-09-19T07:09:51.653Z,20.06
2018-09-19T07:10:51.724Z,20.07
2018-09-19T07:11:51.778Z,20.02
2018-09-19T07:12:51.846Z,20.06
2018-09-19T07:13:51.923Z,20.22
2018-09-19T07:14:51.981Z,20.25
2018-09-19T07:15:52.047Z,20.14
2018-09-19T07:16:52.107Z,20.25
2018-09-19T07:17:52.174Z,20.31
2018-09-19T07:18:52.263Z,20.37
2018-09-19T07:19:52.658Z,20.37
2018-09-19T07:20:52.365Z,20.37
2018-09-19T07:21:52.430Z,20.50
2018-09-19T07:22:52.498Z,20.51
2018-09-19T07:23:52.628Z,20.55
2018-09-19T07:24:52.626Z,20.59
2018-09-19T07:25:52.710Z,20.67
2018-09-19T07:26:52.758Z,20.80
2018-09-19T07:27:52.822Z,21.17
2018-09-19T07:28:52.886Z,21.95
2018-09-19T07:29:52.983Z,22.62
2018-09-19T07:30:53.079Z,23.15
2018-09-19T07:31:53.095Z,23.78
2018-09-19T07:32:53.154Z,24.26
2018-09-19T07:33:53.223Z,24.80
2018-09-19T07:34:53.286Z,24.93
2018-09-19T07:35:53.490Z,25.11
2018-09-19T07:36:53.422Z,25.14
2018-09-19T07:37:53.497Z,25.46
2018-09-19T07:38:53.573Z,25.80
2018-09-19T07:39:53.630Z,26.02
2018-09-19T07:40:53.702Z,26.29
2018-09-19T07:41:53.775Z,26.60
2018-09-19T07:42:53.839Z,26.73
2018-09-19T07:43:53.908Z,26.85
2018-09-19T07:44:53.982Z,26.93
2018-09-19T07:45:54.059Z,26.95
2018-09-19T07:46:54.126Z,26.89
2018-09-19T07:47:54.187Z,27.29
2018-09-19T07:48:54.262Z,27.33
2018-09-19T07:49:54.334Z,27.35
2018-09-19T07:50:54.413Z,27.30
2018-09-19T07:51:54.478Z,27.32
2018-09-19T07:52:54.546Z,27.83
2018-09-19T07:53:54.615Z,28.17
2018-09-19T07:54:54.684Z,28.26
2018-09-19T07:55:54.767Z,28.37
2018-09-19T07:56:54.835Z,28.39
2018-09-19T07:57:54.901Z,28.48
2018-09-19T07:58:54.976Z,28.75
2018-09-19T07:59:55.052Z,28.70
2018-09-19T08:00:55.296Z,28.82
2018-09-19T08:01:55.191Z,28.86
2018-09-19T08:02:55.269Z,29.01
2018-09-19T08:03:55.335Z,28.97
2018-09-19T08:04:55.411Z,28.69
2018-09-19T08:05:55.493Z,29.05
2018-09-19T08:06:55.569Z,29.22
2018-09-19T08:07:55.631Z,29.49
2018-09-19T08:08:55.769Z,29.26
2018-09-19T08:09:55.811Z,29.13
2018-09-19T08:10:55.858Z,29.47
2018-09-19T08:11:55.932Z,29.68
2018-09-19T08:12:55.995Z,29.94
2018-09-19T08:13:56.072Z,29.97
2018-09-19T08:14:56.148Z,30.06
2018-09-19T08:15:56.332Z,30.02
2018-09-19T08:16:56.356Z,30.16
2018-09-19T08:17:56.369Z,30.28
2018-09-19T08:18:56.445Z,30.25
2018-09-19T08:19:56.516Z,30.12
2018-09-19T08:20:56.595Z,29.54
2018-09-19T08:21:56.672Z,28.69
2018-09-19T08:22:56.745Z,28.26
2018-09-19T08:23:56.812Z,27.55
2018-09-19T08:24:56.884Z,27.10
2018-09-19T08:25:56.965Z,26.41
2018-09-19T08:26:57.043Z,26.18
2018-09-19T08:27:57.108Z,26.02
2018-09-19T08:28:57.177Z,25.78
2018-09-19T08:29:57.248Z,25.60
2018-09-19T08:30:57.365Z,25.43
2018-09-19T08:31:57.397Z,25.46
2018-09-19T08:32:57.468Z,25.47
2018-09-19T08:33:57.537Z,25.88
2018-09-19T08:34:57.610Z,26.44
2018-09-19T08:35:57.685Z,26.70
2018-09-19T08:36:57.757Z,27.14
2018-09-19T08:37:57.824Z,27.26
2018-09-19T08:38:57.892Z,26.95
2018-09-19T08:39:57.964Z,26.65
2018-09-19T08:40:58.046Z,27.15
2018-09-19T08:41:58.112Z,27.82
2018-09-19T08:42:58.176Z,28.17
2018-09-19T08:43:58.248Z,28.59
2018-09-19T08:44:58.319Z,28.76
2018-09-19T08:45:58.396Z,29.14
2018-09-19T08:46:58.468Z,29.45
2018-09-19T08:47:58.536Z,29.79
2018-09-19T08:48:58.604Z,29.71
2018-09-19T08:49:58.676Z,29.63
2018-09-19T08:50:58.779Z,29.36
2018-09-19T08:51:58.829Z,29.24
2018-09-19T08:52:58.892Z,29.44
2018-09-19T08:53:58.967Z,29.54
2018-09-19T08:54:59.036Z,29.81
2018-09-19T08:55:59.376Z,29.69
2018-09-19T08:56:59.241Z,29.90
2018-09-19T08:57:59.257Z,29.81
2018-09-19T08:58:59.333Z,29.87
2018-09-19T08:59:59.400Z,29.82
2018-09-19T09:00:59.480Z,29.81
2018-09-19T09:01:59.553Z,29.97
2018-09-19T09:02:59.620Z,30.23
2018-09-19T09:03:59.692Z,30.32
2018-09-19T09:04:59.764Z,30.48
2018-09-19T09:05:59.849Z,30.09
2018-09-19T09:06:59.921Z,30.10
2018-09-19T09:07:59.994Z,30.06
2018-09-19T09:09:00.065Z,30.13
2018-09-19T09:10:00.129Z,30.09
2018-09-19T09:11:00.311Z,30.28
2018-09-19T09:12:00.316Z,30.21
2018-09-19T09:13:00.350Z,30.37
2018-09-19T09:14:00.426Z,30.66
2018-09-19T09:15:00.492Z,30.78
2018-09-19T09:16:00.576Z,30.83
2018-09-19T09:17:00.645Z,30.81
2018-09-19T09:18:00.714Z,30.68
2018-09-19T09:19:00.785Z,30.81
2018-09-19T09:20:00.885Z,30.51
2018-09-19T09:21:00.940Z,30.48
2018-09-19T09:22:01.013Z,30.44
2018-09-19T09:23:01.077Z,30.50
2018-09-19T09:24:01.149Z,30.54
2018-09-19T09:25:01.221Z,30.63
2018-09-19T09:26:01.360Z,30.88
2018-09-19T09:27:01.452Z,30.77
2018-09-19T09:28:01.447Z,30.90
2018-09-19T09:29:01.513Z,31.21
2018-09-19T09:30:01.590Z,31.29
2018-09-19T09:31:01.730Z,31.09
2018-09-19T09:32:01.742Z,31.03
2018-09-19T09:33:01.810Z,31.09
2018-09-19T09:34:01.907Z,31.09
2018-09-19T09:35:01.954Z,31.18
2018-09-19T09:36:02.048Z,31.20
2018-09-19T09:37:02.105Z,31.46
2018-09-19T09:38:02.182Z,31.37
2018-09-19T09:39:02.243Z,31.28
2018-09-19T09:40:02.318Z,31.05
2018-09-19T09:41:02.409Z,31.02
2018-09-19T09:42:02.466Z,30.72
2018-09-19T09:43:02.536Z,30.63
2018-09-19T09:44:02.610Z,30.62
2018-09-19T09:45:02.677Z,30.78
2018-09-19T09:46:02.835Z,30.77
2018-09-19T09:47:02.833Z,30.51
2018-09-19T09:48:02.898Z,30.44
2018-09-19T09:49:02.970Z,30.35
2018-09-19T09:50:03.042Z,30.35
2018-09-19T09:51:03.114Z,30.15
2018-09-19T09:52:03.454Z,29.81
2018-09-19T09:53:03.262Z,29.94
2018-09-19T09:54:03.332Z,29.94
2018-09-19T09:55:03.452Z,29.57
2018-09-19T09:56:03.475Z,29.36
2018-09-19T09:57:03.551Z,28.97
2018-09-19T09:58:03.622Z,28.96
2018-09-19T09:59:03.690Z,28.82
2018-09-19T10:00:03.763Z,28.74
2018-09-19T10:01:03.844Z,29.01
2018-09-19T10:02:03.911Z,28.85
2018-09-19T10:03:03.983Z,28.75
2018-09-19T10:04:04.047Z,28.64
2018-09-19T10:05:04.121Z,28.44
2018-09-19T10:06:04.183Z,28.32
2018-09-19T10:07:04.260Z,28.20
2018-09-19T10:08:04.600Z,28.07
2018-09-19T10:09:04.404Z,28.37
2018-09-19T10:10:04.472Z,28.15
2018-09-19T10:11:04.544Z,28.12
2018-09-19T10:12:04.619Z,28.29
2018-09-19T10:13:04.696Z,28.69
2018-09-19T10:14:04.766Z,28.69
2018-09-19T10:15:04.827Z,28.64
2018-09-19T10:16:04.896Z,28.70
2018-09-19T10:17:04.968Z,28.75
2018-09-19T10:18:05.046Z,28.63
2018-09-19T10:19:05.117Z,29.47
2018-09-19T10:20:05.180Z,30.00
2018-09-19T10:21:05.248Z,30.35
2018-09-19T10:22:05.321Z,30.32
2018-09-19T10:23:05.400Z,30.46
2018-09-19T10:24:05.468Z,30.90
2018-09-19T10:25:05.532Z,31.22
2018-09-19T10:26:05.601Z,31.61
2018-09-19T10:27:05.672Z,31.87
2018-09-19T10:28:05.754Z,31.77
2018-09-19T10:29:05.820Z,31.55
2018-09-19T10:30:05.886Z,31.21
2018-09-19T10:31:05.961Z,31.39
2018-09-19T10:32:06.026Z,30.75
2018-09-19T10:33:06.144Z,30.68
2018-09-19T10:34:06.169Z,30.59
2018-09-19T10:35:06.241Z,30.65
2018-09-19T10:36:06.308Z,30.80
2018-09-19T10:37:06.383Z,31.00
2018-09-19T10:38:06.458Z,31.27
2018-09-19T10:39:06.529Z,31.34
2018-09-19T10:40:06.595Z,31.36
2018-09-19T10:41:06.662Z,31.22
2018-09-19T10:42:06.733Z,31.34
2018-09-19T10:43:06.812Z,30.94
2018-09-19T10:44:06.886Z,30.90
2018-09-19T10:45:06.945Z,30.91
2018-09-19T10:46:07.020Z,31.07
2018-09-19T10:47:07.089Z,31.00
2018-09-19T10:48:07.185Z,30.97
2018-09-19T10:49:07.229Z,30.99
2018-09-19T10:50:07.303Z,31.21
2018-09-19T10:51:07.377Z,31.09
2018-09-19T10:52:07.449Z,31.00
2018-09-19T10:53:07.522Z,30.92
2018-09-19T10:54:07.593Z,30.92
2018-09-19T10:55:07.668Z,31.05
2018-09-19T10:56:07.745Z,31.12
2018-09-19T10:57:07.800Z,31.21
2018-09-19T10:58:07.874Z,31.20
2018-09-19T10:59:07.946Z,31.28
2018-09-19T11:00:08.012Z,31.22
2018-09-19T11:01:08.084Z,31.21
2018-09-19T11:02:08.153Z,31.29
2018-09-19T11:03:08.582Z,31.31
2018-09-19T11:04:08.294Z,31.21
2018-09-19T11:05:08.369Z,31.31
2018-09-19T11:06:08.440Z,31.21
2018-09-19T11:07:08.513Z,31.34
2018-09-19T11:08:08.577Z,31.37
2018-09-19T11:09:08.665Z,31.47
2018-09-19T11:10:08.726Z,31.42
2018-09-19T11:11:08.799Z,31.37
2018-09-19T11:12:08.865Z,31.21
2018-09-19T11:13:08.934Z,31.14
2018-09-19T11:14:09.011Z,31.25
2018-09-19T11:15:09.086Z,31.21
2018-09-19T11:16:09.150Z,31.27
2018-09-19T11:17:09.261Z,31.29
2018-09-19T11:18:09.293Z,31.54
2018-09-19T11:19:09.369Z,31.65
2018-09-19T11:20:09.442Z,31.84
2018-09-19T11:21:09.506Z,31.74
2018-09-19T11:22:09.578Z,31.62
2018-09-19T11:23:09.649Z,31.76
2018-09-19T11:24:09.729Z,31.54
2018-09-19T11:25:09.798Z,31.33
2018-09-19T11:26:09.866Z,31.29
2018-09-19T11:27:09.939Z,31.47
2018-09-19T11:28:10.006Z,31.49
2018-09-19T11:29:10.174Z,31.46
2018-09-19T11:30:10.151Z,31.47
2018-09-19T11:31:10.222Z,31.52
2018-09-19T11:32:10.294Z,31.59
2018-09-19T11:33:10.365Z,31.66
2018-09-19T11:34:10.447Z,31.77
2018-09-19T11:35:10.558Z,31.96
2018-09-19T11:36:10.582Z,31.78
2018-09-19T11:37:10.655Z,31.69
2018-09-19T11:38:10.727Z,31.78
2018-09-19T11:39:10.802Z,31.56
2018-09-19T11:40:10.880Z,31.61
2018-09-19T11:41:10.943Z,31.66
2018-09-19T11:42:11.015Z,31.78
2018-09-19T11:43:11.086Z,32.11
2018-09-19T11:44:11.191Z,32.07
2018-09-19T11:45:11.228Z,31.92
2018-09-19T11:46:11.300Z,31.66
2018-09-19T11:47:11.373Z,31.40
2018-09-19T11:48:11.444Z,31.47
2018-09-19T11:49:11.524Z,31.25
2018-09-19T11:50:11.596Z,31.34
2018-09-19T11:51:11.659Z,31.24
2018-09-19T11:52:11.736Z,31.27
2018-09-19T11:53:11.804Z,31.37
2018-09-19T11:54:11.892Z,31.37
2018-09-19T11:55:11.956Z,31.70
2018-09-19T11:56:12.020Z,31.77
2018-09-19T11:57:12.092Z,31.92
2018-09-19T11:58:12.166Z,32.03
2018-09-19T11:59:12.508Z,31.69
2018-09-19T12:00:12.308Z,31.51
2018-09-19T12:01:12.413Z,31.39
2018-09-19T12:02:12.453Z,31.22
2018-09-19T12:03:12.525Z,30.85
2018-09-19T12:04:12.600Z,30.39
2018-09-19T12:05:12.676Z,30.40
2018-09-19T12:06:12.737Z,30.61
2018-09-19T12:07:12.844Z,30.69
2018-09-19T12:08:12.880Z,30.87
2018-09-19T12:09:12.961Z,31.00
2018-09-19T12:10:13.037Z,31.25
2018-09-19T12:11:13.096Z,31.28
2018-09-19T12:12:13.168Z,31.54
2018-09-19T12:13:13.241Z,31.78
2018-09-19T12:14:13.496Z,31.90
2018-09-19T12:15:13.385Z,32.09
2018-09-19T12:16:13.456Z,32.18
2018-09-19T12:17:13.525Z,32.19
2018-09-19T12:18:13.597Z,32.31
2018-09-19T12:19:13.676Z,32.53
2018-09-19T12:20:13.749Z,32.70
2018-09-19T12:21:13.812Z,32.95
2018-09-19T12:22:13.885Z,33.11
2018-09-19T12:23:13.956Z,33.14
2018-09-19T12:24:14.037Z,33.12
2018-09-19T12:25:14.111Z,33.00
2018-09-19T12:26:14.218Z,32.83
2018-09-19T12:27:14.246Z,32.77
2018-09-19T12:28:14.321Z,32.53
2018-09-19T12:29:14.397Z,32.56
2018-09-19T12:30:14.469Z,32.55
2018-09-19T12:31:14.536Z,32.31
2018-09-19T12:32:14.605Z,32.31
2018-09-19T12:33:14.722Z,32.37
2018-09-19T12:34:14.757Z,32.22
2018-09-19T12:35:14.829Z,32.01
2018-09-19T12:36:14.897Z,32.00
2018-09-19T12:37:14.969Z,31.65
2018-09-19T12:38:15.037Z,31.62
2018-09-19T12:39:15.201Z,31.85
2018-09-19T12:40:15.188Z,31.78
2018-09-19T12:41:15.253Z,31.92
2018-09-19T12:42:15.327Z,31.97
2018-09-19T12:43:15.397Z,31.94
2018-09-19T12:44:15.481Z,31.76
2018-09-19T12:45:15.549Z,31.78
2018-09-19T12:46:15.619Z,31.87
2018-09-19T12:47:15.685Z,31.99
2018-09-19T12:48:15.758Z,32.07
2018-09-19T12:49:15.879Z,32.14
2018-09-19T12:50:15.909Z,32.18
2018-09-19T12:51:15.976Z,32.23
2018-09-19T12:52:16.046Z,32.12
2018-09-19T12:53:16.167Z,31.93